Time;durP1;ratioP1;P1;durP2;ratioP2;P2;SDS_P1;SDS_P2;PMS_P1;PMS_P2;Temp;Humidity;BMP_temperature;BMP_pressure;BME280_temperature;BME280_humidity;BME280_pressure;Samples;Min_cycle;Max_cycle;Signal;HPM_P1;HPM_P2
2023/11/02 00:02:25;;;;;;;5.37;1.30;;;;;;;8.47;100.00;99645.50;4963669;28;20498;-77
2023/11/02 00:04:50;;;;;;;6.03;1.70;;;;;;;8.53;100.00;99628.59;4972614;28;20445;-76
2023/11/02 00:07:17;;;;;;;7.00;1.30;;;;;;;9.73;100.00;99822.03;4971133;28;20442;-76
2023/11/02 00:09:43;;;;;;;8.30;1.53;;;;;;;9.53;100.00;99791.09;4967889;28;20214;-76
2023/11/02 00:12:15;;;;;;;5.40;1.33;;;;;;;8.89;100.00;99708.19;4969758;28;20440;-76
2023/11/02 00:14:48;;;;;;;4.37;1.20;;;;;;;8.77;100.00;99675.97;4972763;28;20435;-77
2023/11/02 00:17:48;;;;;;;5.53;1.50;;;;;;;9.36;100.00;99740.78;4967743;28;20469;-77
2023/11/02 00:20:30;;;;;;;4.17;1.20;;;;;;;9.07;100.00;99728.03;4966929;28;20498;-76
2023/11/02 00:22:56;;;;;;;3.80;1.17;;;;;;;9.13;100.00;99754.72;4969782;28;20434;-76
2023/11/02 00:25:42;;;;;;;4.37;1.47;;;;;;;9.22;100.00;99760.63;4984892;28;20437;-76
2023/11/02 00:28:10;;;;;;;5.60;1.33;;;;;;;8.62;100.00;99651.38;4979161;28;20211;-76
2023/11/02 00:30:36;;;;;;;4.60;1.20;;;;;;;9.50;100.00;99792.34;4958164;28;20466;-76
2023/11/02 00:33:02;;;;;;;3.77;1.27;;;;;;;9.25;100.00;99811.03;4971393;28;20975;-77
2023/11/02 00:35:28;;;;;;;4.47;1.17;;;;;;;8.07;100.00;99616.28;4971051;28;20473;-76
2023/11/02 00:37:54;;;;;;;3.83;1.20;;;;;;;8.01;100.00;99606.44;4968814;28;20432;-75
2023/11/02 00:40:19;;;;;;;5.70;1.13;;;;;;;9.14;100.00;99774.28;4985667;28;20191;-76
2023/11/02 00:42:46;;;;;;;3.90;1.10;;;;;;;8.90;100.00;99774.00;4966832;28;20714;-76
2023/11/02 00:45:12;;;;;;;6.40;1.40;;;;;;;8.00;100.00;99659.03;4970125;28;20440;-76
2023/11/02 00:47:38;;;;;;;4.77;1.33;;;;;;;8.04;100.00;99662.09;4965781;28;20473;-76
2023/11/02 00:50:26;;;;;;;5.80;1.20;;;;;;;9.19;100.00;99842.16;4971118;28;20229;-76
2023/11/02 00:52:52;;;;;;;4.00;1.10;;;;;;;8.64;100.00;99729.50;4983385;28;20529;-76
2023/11/02 00:55:43;;;;;;;4.77;1.20;;;;;;;8.75;100.00;99776.13;4968786;28;20592;-76
2023/11/02 00:58:11;;;;;;;3.53;0.90;;;;;;;8.96;100.00;99769.66;4979619;28;20258;-77
2023/11/02 01:01:03;;;;;;;6.27;1.00;;;;;;;10.06;100.00;99965.63;4960616;28;20995;-76
2023/11/02 01:03:34;;;;;;;4.10;1.20;;;;;;;9.19;100.00;99822.59;4968615;28;20815;-76
2023/11/02 01:06:00;;;;;;;4.30;1.27;;;;;;;9.30;100.00;99831.81;4966528;28;20445;-76
2023/11/02 01:08:33;;;;;;;4.87;1.40;;;;;;;7.88;100.00;99600.13;4969077;28;20532;-76
2023/11/02 01:11:00;;;;;;;7.03;1.20;;;;;;;9.62;100.00;99904.91;4962672;28;20447;-76
2023/11/02 01:13:27;;;;;;;6.03;1.20;;;;;;;8.06;100.00;99628.81;4971636;28;20453;-75
2023/11/02 01:16:12;;;;;;;6.20;1.00;;;;;;;8.60;100.00;99752.34;4974983;28;20923;-76
2023/11/02 01:18:46;;;;;;;6.47;1.27;;;;;;;8.91;100.00;99772.13;4971946;28;20461;-76
2023/11/02 01:21:14;;;;;;;4.57;1.33;;;;;;;9.04;100.00;99786.25;4972237;28;20433;-76
2023/11/02 01:23:41;;;;;;;5.80;1.60;;;;;;;8.57;100.00;99696.66;4970487;28;20445;-76
2023/11/02 01:26:35;;;;;;;5.00;1.20;;;;;;;8.59;100.00;99673.16;4973438;28;20442;-76
2023/11/02 01:29:04;;;;;;;5.10;1.20;;;;;;;8.79;100.00;99683.75;4981474;28;20616;-76
2023/11/02 01:31:34;;;;;;;3.77;1.10;;;;;;;8.46;100.00;99660.72;4973015;28;20916;-76
2023/11/02 01:34:02;;;;;;;5.10;1.30;;;;;;;8.42;100.00;99616.75;4973084;28;20919;-76
2023/11/02 01:36:32;;;;;;;4.07;1.00;;;;;;;8.57;100.00;99659.22;4968519;28;20430;-76
2023/11/02 01:39:15;;;;;;;6.43;1.33;;;;;;;8.54;100.00;99640.94;4967954;28;20453;-75
2023/11/02 01:41:47;;;;;;;2.93;0.90;;;;;;;10.13;100.00;99869.13;4954760;28;20439;-76
2023/11/02 01:44:32;;;;;;;4.70;1.10;;;;;;;9.18;100.00;99713.97;4966774;28;20569;-76
2023/11/02 01:47:24;;;;;;;5.13;1.33;;;;;;;8.13;100.00;99559.34;4962864;28;20439;-76
2023/11/02 01:50:04;;;;;;;5.23;1.20;;;;;;;7.96;100.00;99494.13;4969965;28;20505;-76
2023/11/02 01:53:09;;;;;;;4.90;1.57;;;;;;;10.14;100.00;99834.06;4975366;28;20410;-76
2023/11/02 01:56:08;;;;;;;3.70;1.10;;;;;;;9.25;100.00;99664.69;4989520;28;20421;-76
2023/11/02 01:58:55;;;;;;;4.13;1.17;;;;;;;9.95;100.00;99755.53;4958669;28;20823;-76
2023/11/02 02:01:53;;;;;;;4.13;1.20;;;;;;;10.06;100.00;99774.56;4964694;28;20534;-76
2023/11/02 02:04:44;;;;;;;4.60;1.10;;;;;;;9.93;100.00;99722.78;4964361;28;20434;-76
2023/11/02 02:07:25;;;;;;;3.87;1.23;;;;;;;10.32;100.00;99728.75;4970383;28;20885;-76
2023/11/02 02:10:16;;;;;;;4.50;1.30;;;;;;;10.21;100.00;99715.25;4963642;28;20541;-75
2023/11/02 02:12:50;;;;;;;4.27;1.17;;;;;;;10.19;100.00;99686.84;4967460;28;20478;-76
2023/11/02 02:15:26;;;;;;;6.60;1.63;;;;;;;10.06;100.00;99680.81;4968842;28;20441;-76
2023/11/02 02:18:21;;;;;;;3.97;1.40;;;;;;;10.13;100.00;99665.47;4972842;28;20547;-76
2023/11/02 02:20:58;;;;;;;4.67;1.00;;;;;;;9.47;100.00;99554.56;4966243;28;20476;-76
2023/11/02 02:23:23;;;;;;;6.07;1.30;;;;;;;10.14;100.00;99654.53;4970045;28;20433;-76
2023/11/02 02:26:16;;;;;;;5.00;1.80;;;;;;;10.02;100.00;99653.66;4972597;28;20521;-77
2023/11/02 02:29:26;;;;;;;3.93;1.10;;;;;;;9.93;100.00;99622.84;4987396;28;20675;-76
2023/11/02 02:32:08;;;;;;;3.07;1.10;;;;;;;9.96;100.00;99631.25;4962635;28;20497;-76
2023/11/02 02:34:46;;;;;;;3.80;1.23;;;;;;;9.95;100.00;99618.91;4966336;28;20944;-76
2023/11/02 02:37:36;;;;;;;4.70;1.40;;;;;;;10.02;100.00;99597.38;4972418;28;20455;-76
2023/11/02 02:40:07;;;;;;;5.00;1.30;;;;;;;9.99;100.00;99591.66;4957324;28;20500;-76
2023/11/02 02:42:37;;;;;;;4.00;0.90;;;;;;;9.65;100.00;99549.22;4971618;28;20533;-76
2023/11/02 02:45:09;;;;;;;4.60;1.50;;;;;;;9.57;100.00;99489.78;4966390;28;20449;-76
2023/11/02 02:47:37;;;;;;;4.10;1.40;;;;;;;9.73;100.00;99534.72;4966413;28;20952;-76
2023/11/02 02:50:03;;;;;;;5.27;1.03;;;;;;;10.09;100.00;99557.91;4969638;28;20978;-76
2023/11/02 02:52:31;;;;;;;6.17;1.37;;;;;;;9.93;100.00;99529.09;4969344;28;20439;-76
2023/11/02 02:54:59;;;;;;;4.63;0.90;;;;;;;9.71;100.00;99457.28;4967679;28;20484;-76
2023/11/02 02:57:30;;;;;;;3.90;1.00;;;;;;;9.80;100.00;99481.06;4961277;28;20493;-76
2023/11/02 02:59:59;;;;;;;5.80;1.23;;;;;;;9.84;100.00;99450.13;4961660;28;20883;-76
2023/11/02 03:02:35;;;;;;;4.83;1.30;;;;;;;9.36;100.00;99410.81;4972712;28;20445;-76
2023/11/02 03:05:01;;;;;;;4.80;1.20;;;;;;;9.96;100.00;99442.94;4970914;28;20432;-76
2023/11/02 03:07:30;;;;;;;5.97;1.23;;;;;;;9.72;100.00;99377.78;4969939;28;21071;-76
2023/11/02 03:10:00;;;;;;;4.00;1.30;;;;;;;10.09;100.00;99437.34;4958418;28;20447;-76
2023/11/02 03:12:28;;;;;;;4.00;0.90;;;;;;;9.43;100.00;99328.56;4962116;28;20909;-76
2023/11/02 03:14:56;;;;;;;6.07;1.20;;;;;;;10.06;100.00;99419.06;4963399;28;20947;-76
2023/11/02 03:17:55;;;;;;;6.70;1.10;;;;;;;9.98;100.00;99400.66;4968767;28;20552;-76
2023/11/02 03:20:26;;;;;;;3.97;0.97;;;;;;;9.62;100.00;99321.28;4967774;28;20488;-76
2023/11/02 03:22:55;;;;;;;3.20;1.20;;;;;;;10.17;100.00;99375.41;4974654;28;20499;-76
2023/11/02 03:25:33;;;;;;;2.80;0.90;;;;;;;9.61;100.00;99303.59;4968795;28;20521;-77
2023/11/02 03:28:31;;;;;;;4.47;1.40;;;;;;;10.19;100.00;99349.19;4982946;28;20548;-77
2023/11/02 03:31:02;;;;;;;3.10;1.00;;;;;;;10.19;100.00;99343.84;4972424;28;20434;-76
2023/11/02 03:34:06;;;;;;;3.50;0.90;;;;;;;9.96;100.00;99301.78;4972060;28;20433;-76
2023/11/02 03:37:02;;;;;;;4.40;1.00;;;;;;;10.25;100.00;99326.03;4963947;28;20453;-76
2023/11/02 03:40:00;;;;;;;4.53;1.10;;;;;;;10.28;100.00;99319.41;4969926;28;20451;-76
2023/11/02 03:42:25;;;;;;;3.17;0.90;;;;;;;10.28;100.00;99308.69;4964607;28;20449;-76
2023/11/02 03:45:20;;;;;;;4.00;1.10;;;;;;;10.22;100.00;99309.59;4972890;28;20837;-76
2023/11/02 03:48:14;;;;;;;5.27;1.17;;;;;;;10.19;100.00;99309.00;4967201;28;20222;-76
2023/11/02 03:50:55;;;;;;;3.47;1.00;;;;;;;10.22;100.00;99296.19;4966130;28;20524;-76
2023/11/02 03:53:33;;;;;;;4.30;0.90;;;;;;;10.09;100.00;99311.44;4982473;28;20449;-76
2023/11/02 03:56:01;;;;;;;6.97;0.90;;;;;;;10.24;100.00;99302.97;4966261;28;20489;-76
2023/11/02 03:58:29;;;;;;;3.70;1.10;;;;;;;10.28;100.00;99292.63;4965082;28;20449;-76
2023/11/02 04:01:11;;;;;;;3.67;1.10;;;;;;;9.83;100.00;99223.53;4972837;28;20438;-76
2023/11/02 04:03:43;;;;;;;3.30;1.00;;;;;;;9.48;100.00;99174.28;4964528;28;20444;-76
2023/11/02 04:06:15;;;;;;;2.50;0.83;;;;;;;9.58;100.00;99187.09;4969397;28;20438;-76
2023/11/02 04:08:42;;;;;;;4.57;1.17;;;;;;;9.41;100.00;99160.22;4972349;28;20501;-76
2023/11/02 04:11:13;;;;;;;4.73;1.20;;;;;;;10.29;100.00;99272.78;4972798;28;20437;-76
2023/11/02 04:13:55;;;;;;;4.93;0.80;;;;;;;10.13;100.00;99256.34;4966629;28;20441;-76
2023/11/02 04:16:20;;;;;;;3.83;0.90;;;;;;;9.36;100.00;99070.97;4966759;28;20462;-76
2023/11/02 04:18:46;;;;;;;2.67;0.70;;;;;;;9.65;100.00;99112.81;4965338;28;20558;-76
2023/11/02 04:21:12;;;;;;;3.07;0.80;;;;;;;9.84;100.00;99150.19;4969511;28;20187;-76
2023/11/02 04:23:37;;;;;;;4.00;1.10;;;;;;;9.53;100.00;99063.03;4969944;28;20225;-76
2023/11/02 04:26:03;;;;;;;2.80;0.90;;;;;;;10.22;100.00;99175.63;4971005;28;20477;-76
2023/11/02 04:28:29;;;;;;;4.70;0.80;;;;;;;9.14;100.00;98998.50;4957285;28;20839;-76
2023/11/02 04:30:55;;;;;;;5.03;0.97;;;;;;;9.53;100.00;99060.38;4966300;28;20178;-76
2023/11/02 04:33:21;;;;;;;3.37;1.10;;;;;;;10.21;100.00;99136.47;4963257;28;20269;-76
2023/11/02 04:35:46;;;;;;;8.97;1.10;;;;;;;10.26;100.00;99129.34;4963959;28;20182;-76
2023/11/02 04:38:11;;;;;;;5.17;0.90;;;;;;;10.15;100.00;99120.31;4967242;28;20174;-76
2023/11/02 04:40:41;;;;;;;6.07;1.00;;;;;;;9.56;100.00;99015.22;4967964;28;20233;-76
2023/11/02 04:43:06;;;;;;;3.80;1.20;;;;;;;9.50;100.00;98950.06;4969044;28;20666;-76
2023/11/02 04:45:34;;;;;;;3.17;0.80;;;;;;;9.53;100.00;98938.06;4968802;28;20425;-76
2023/11/02 04:47:59;;;;;;;3.90;1.00;;;;;;;10.06;100.00;99029.81;4971092;28;20612;-77
2023/11/02 04:50:25;;;;;;;3.60;1.30;;;;;;;9.80;100.00;98970.41;4966144;28;20445;-76
2023/11/02 04:52:52;;;;;;;3.67;0.80;;;;;;;10.22;100.00;99038.97;4968646;28;20182;-77
2023/11/02 04:55:17;;;;;;;3.90;0.77;;;;;;;10.18;100.00;99023.38;4971684;28;20270;-76
2023/11/02 04:57:43;;;;;;;4.77;1.00;;;;;;;10.10;100.00;99025.63;4970237;28;20501;-76
2023/11/02 05:00:09;;;;;;;4.73;1.00;;;;;;;9.82;100.00;98984.41;4966490;28;20241;-76
2023/11/02 05:02:35;;;;;;;7.23;0.87;;;;;;;9.88;100.00;99020.94;4984672;28;20194;-76
2023/11/02 05:05:00;;;;;;;3.67;0.77;;;;;;;9.73;100.00;98967.91;4968499;28;20422;-76
2023/11/02 05:07:26;;;;;;;3.47;0.87;;;;;;;10.24;100.00;99051.09;4967894;28;20195;-75
2023/11/02 05:09:52;;;;;;;4.17;0.93;;;;;;;10.40;100.00;99077.13;4986336;28;20214;-76
2023/11/02 05:12:17;;;;;;;3.03;0.80;;;;;;;9.81;100.00;98995.34;4970406;28;20444;-76
2023/11/02 05:14:46;;;;;;;4.30;1.00;;;;;;;9.37;100.00;98946.84;4969549;28;20273;-76
2023/11/02 05:17:11;;;;;;;3.60;0.83;;;;;;;10.40;100.00;99070.94;4976020;28;20651;-76
2023/11/02 05:19:37;;;;;;;3.43;0.87;;;;;;;10.41;100.00;99059.16;4971939;28;20461;-77
2023/11/02 05:22:04;;;;;;;3.60;0.90;;;;;;;10.36;100.00;99024.25;4973724;28;20702;-76
2023/11/02 05:24:29;;;;;;;3.97;0.80;;;;;;;10.45;100.00;99024.66;4969656;28;20435;-76
2023/11/02 05:26:55;;;;;;;3.67;0.90;;;;;;;9.78;100.00;98897.56;4963790;28;20430;-76
2023/11/02 05:29:21;;;;;;;4.33;1.00;;;;;;;10.40;100.00;99002.06;4972642;28;20220;-76
2023/11/02 05:31:47;;;;;;;3.10;0.73;;;;;;;10.19;100.00;98917.03;4965661;28;20179;-76
2023/11/02 05:34:12;;;;;;;5.50;0.80;;;;;;;9.61;100.00;98806.53;4966896;28;20421;-76
2023/11/02 05:36:38;;;;;;;2.90;0.80;;;;;;;10.05;100.00;98851.41;4975058;28;20434;-76
2023/11/02 05:39:05;;;;;;;3.77;0.80;;;;;;;9.48;100.00;98743.41;4972369;28;20214;-76
2023/11/02 05:41:31;;;;;;;3.70;0.83;;;;;;;9.73;100.00;98750.25;4973213;28;20182;-76
2023/11/02 05:43:57;;;;;;;4.83;0.80;;;;;;;10.37;100.00;98824.88;4969564;28;20442;-76
2023/11/02 05:46:25;;;;;;;4.53;1.10;;;;;;;10.54;100.00;98848.97;4972715;28;20186;-76
2023/11/02 05:48:50;;;;;;;3.63;0.90;;;;;;;10.65;100.00;98841.88;4983150;28;20345;-77
2023/11/02 05:51:16;;;;;;;4.00;1.00;;;;;;;10.23;100.00;98775.34;4977287;28;20940;-76
2023/11/02 05:53:41;;;;;;;3.53;0.80;;;;;;;10.10;100.00;98747.84;4975014;28;20186;-76
2023/11/02 05:56:07;;;;;;;4.50;0.80;;;;;;;9.62;100.00;98695.72;4984420;28;20308;-76
2023/11/02 05:58:33;;;;;;;3.23;0.97;;;;;;;10.07;100.00;98726.09;4961923;28;20198;-76
2023/11/02 06:04:20;;;;;;;3.23;0.80;;;;;;;10.47;100.00;98802.75;4967223;28;20441;-76
2023/11/02 06:06:46;;;;;;;4.53;0.90;;;;;;;10.22;100.00;98761.13;4975188;28;20422;-76
2023/11/02 06:09:12;;;;;;;3.27;1.00;;;;;;;10.39;100.00;98774.53;4973396;28;20218;-76
2023/11/02 06:11:38;;;;;;;3.67;0.80;;;;;;;10.66;100.00;98793.34;4973067;28;20191;-76
2023/11/02 06:14:03;;;;;;;5.13;1.10;;;;;;;10.09;100.00;98738.16;4974252;28;20574;-76
2023/11/02 06:16:33;;;;;;;3.50;1.20;;;;;;;10.61;100.00;98772.66;4967995;28;20474;-76
2023/11/02 06:19:00;;;;;;;4.50;0.90;;;;;;;10.53;100.00;98753.50;4967641;28;20788;-76
2023/11/02 06:21:26;;;;;;;3.77;0.90;;;;;;;10.38;100.00;98740.72;4974182;28;20903;-76
2023/11/02 06:23:51;;;;;;;3.63;1.00;;;;;;;10.52;100.00;98725.91;4972738;28;20424;-76
2023/11/02 06:26:18;;;;;;;3.07;0.80;;;;;;;10.52;100.00;98725.91;4969941;28;20278;-76
2023/11/02 06:28:44;;;;;;;4.70;1.00;;;;;;;10.42;100.00;98688.25;4969824;28;20783;-76
2023/11/02 06:31:09;;;;;;;3.60;0.73;;;;;;;10.29;100.00;98656.47;4972632;28;20431;-76
2023/11/02 06:33:36;;;;;;;4.30;1.20;;;;;;;10.11;100.00;98591.41;4983211;28;20429;-76
2023/11/02 06:36:01;;;;;;;4.40;1.00;;;;;;;9.98;100.00;98594.50;4968286;28;20698;-76
2023/11/02 06:38:59;;;;;;;5.33;1.00;;;;;;;10.74;100.00;98682.19;4966941;28;20459;-77
2023/11/02 06:41:25;;;;;;;4.30;1.00;;;;;;;10.30;100.00;98601.81;4971013;28;20242;-76
2023/11/02 06:43:51;;;;;;;2.43;0.70;;;;;;;10.46;100.00;98616.22;4973281;28;20426;-76
2023/11/02 06:46:16;;;;;;;4.47;1.07;;;;;;;10.37;100.00;98595.22;4971898;28;20269;-76
2023/11/02 06:48:42;;;;;;;3.07;0.90;;;;;;;10.59;100.00;98619.31;4986342;28;20302;-76
2023/11/02 06:51:32;;;;;;;5.07;1.00;;;;;;;11.06;100.00;98674.97;4974322;28;20226;-76
2023/11/02 06:53:58;;;;;;;4.90;1.27;;;;;;;10.89;100.00;98639.41;4972492;28;20186;-77
2023/11/02 06:56:25;;;;;;;2.90;0.73;;;;;;;10.78;100.00;98616.25;4964911;28;20431;-76
2023/11/02 06:58:52;;;;;;;4.80;0.90;;;;;;;10.44;100.00;98562.03;4966922;28;20289;-76
2023/11/02 07:01:18;;;;;;;4.50;0.80;;;;;;;10.35;100.00;98542.94;4973913;28;20433;-77
2023/11/02 07:03:44;;;;;;;2.73;0.70;;;;;;;10.03;100.00;98489.28;4970037;28;20422;-76
2023/11/02 07:06:09;;;;;;;4.77;0.90;;;;;;;10.96;100.00;98617.75;4970064;28;20796;-76
2023/11/02 07:08:35;;;;;;;3.90;0.90;;;;;;;10.40;100.00;98533.06;4968519;28;20301;-77
2023/11/02 07:11:02;;;;;;;5.00;0.90;;;;;;;10.74;100.00;98577.59;4969701;28;20187;-76
2023/11/02 07:13:28;;;;;;;3.13;0.90;;;;;;;10.45;100.00;98537.69;4970792;28;20182;-77
2023/11/02 07:15:53;;;;;;;4.40;1.07;;;;;;;10.98;100.00;98610.25;4960726;28;20480;-77
2023/11/02 07:18:19;;;;;;;4.50;0.97;;;;;;;10.93;100.00;98619.06;4967359;28;20206;-76
2023/11/02 07:20:44;;;;;;;5.17;1.17;;;;;;;10.62;100.00;98553.66;4973892;28;20178;-77
2023/11/02 07:23:10;;;;;;;3.17;0.97;;;;;;;10.76;100.00;98548.66;4973054;28;20242;-77
2023/11/02 07:25:35;;;;;;;5.17;1.10;;;;;;;10.85;100.00;98563.22;4961004;28;20194;-77
2023/11/02 07:28:01;;;;;;;6.13;1.47;;;;;;;10.49;100.00;98498.56;4968112;28;20645;-76
2023/11/02 07:30:26;;;;;;;4.90;0.90;;;;;;;10.55;100.00;98515.50;4969491;28;20178;-77
2023/11/02 07:32:51;;;;;;;4.30;0.83;;;;;;;10.59;100.00;98511.28;4967036;28;20191;-76
2023/11/02 07:35:17;;;;;;;4.60;0.80;;;;;;;10.50;100.00;98494.84;4964589;28;20719;-76
2023/11/02 07:37:42;;;;;;;4.80;1.30;;;;;;;10.34;100.00;98487.72;4968404;28;20180;-76
2023/11/02 07:40:09;;;;;;;3.87;1.23;;;;;;;10.80;100.00;98560.50;4968502;28;20325;-78
2023/11/02 07:45:57;;;;;;;4.20;1.23;;;;;;;10.90;100.00;98581.22;4970048;28;20450;-77
2023/11/02 07:48:22;;;;;;;3.17;0.90;;;;;;;10.85;100.00;98587.38;4971953;28;20504;-77
2023/11/02 07:50:47;;;;;;;6.40;0.97;;;;;;;10.44;100.00;98511.13;4973229;28;20257;-77
2023/11/02 07:53:13;;;;;;;4.20;0.80;;;;;;;10.31;100.00;98501.63;4973368;28;20182;-77
2023/11/02 07:55:38;;;;;;;4.27;0.83;;;;;;;10.81;100.00;98583.56;4968830;28;20214;-77
2023/11/02 07:58:04;;;;;;;4.93;1.03;;;;;;;10.47;100.00;98513.28;4971701;28;20182;-77
2023/11/02 08:00:30;;;;;;;4.80;1.00;;;;;;;10.39;100.00;98506.53;4982728;28;20182;-77
2023/11/02 08:02:55;;;;;;;3.70;0.70;;;;;;;10.34;100.00;98495.75;4966006;28;20828;-77
2023/11/02 08:05:21;;;;;;;3.90;1.07;;;;;;;10.34;100.00;98485.06;4973289;28;20182;-76
2023/11/02 08:07:48;;;;;;;4.27;1.03;;;;;;;10.31;100.00;98454.22;4958522;28;20199;-77
2023/11/02 08:10:13;;;;;;;4.20;1.10;;;;;;;10.87;100.00;98558.41;4963765;28;20196;-77
2023/11/02 08:12:39;;;;;;;4.30;1.00;;;;;;;10.42;100.00;98484.59;4972818;28;20911;-76
2023/11/02 08:15:05;;;;;;;3.23;0.90;;;;;;;10.44;100.00;98484.31;4973094;28;20246;-76
2023/11/02 08:17:30;;;;;;;3.80;0.93;;;;;;;10.62;100.00;98495.47;4973399;28;20193;-76
2023/11/02 08:19:57;;;;;;;2.77;0.83;;;;;;;10.78;100.00;98522.41;4965505;28;20622;-75
2023/11/02 08:22:23;;;;;;;4.90;1.00;;;;;;;10.94;100.00;98552.84;4974397;28;20178;-76
2023/11/02 08:24:49;;;;;;;4.20;0.90;;;;;;;10.37;100.00;98471.94;4974812;28;20927;-76
2023/11/02 08:27:15;;;;;;;3.13;0.80;;;;;;;10.17;100.00;98439.59;4976989;28;20186;-76
2023/11/02 08:29:41;;;;;;;4.70;1.07;;;;;;;10.34;100.00;98471.66;4981150;28;20524;-75
2023/11/02 08:32:07;;;;;;;3.77;1.30;;;;;;;9.70;100.00;98376.78;4976638;28;20429;-75
2023/11/02 08:34:32;;;;;;;4.27;1.00;;;;;;;10.26;100.00;98437.25;4971782;28;20322;-76
2023/11/02 08:36:57;;;;;;;5.77;1.20;;;;;;;10.61;100.00;98493.84;4973215;28;20500;-76
2023/11/02 08:39:23;;;;;;;4.63;0.80;;;;;;;10.14;100.00;98432.88;4975999;28;20252;-76
2023/11/02 08:41:49;;;;;;;4.03;1.00;;;;;;;10.16;100.00;98436.09;4970311;28;20194;-75
2023/11/02 08:44:14;;;;;;;4.27;0.90;;;;;;;10.79;100.00;98524.00;4972609;28;20182;-76
2023/11/02 08:46:39;;;;;;;4.40;0.90;;;;;;;10.24;100.00;98447.41;4990035;28;20266;-76
2023/11/02 08:49:05;;;;;;;4.97;0.80;;;;;;;10.52;100.00;98484.66;4975644;28;20221;-77
2023/11/02 08:51:31;;;;;;;3.00;0.73;;;;;;;10.78;100.00;98514.34;4976322;28;20217;-75
2023/11/02 08:53:56;;;;;;;4.03;0.90;;;;;;;10.18;100.00;98443.88;4975280;28;20552;-75
2023/11/02 08:56:22;;;;;;;5.37;1.10;;;;;;;10.48;100.00;98515.72;4976264;28;20432;-76
2023/11/02 08:58:51;;;;;;;6.80;0.83;;;;;;;10.78;100.00;98544.66;4973422;28;20667;-76
2023/11/02 09:01:23;;;;;;;4.83;1.00;;;;;;;10.77;100.00;98564.50;4972535;28;20194;-75
2023/11/02 09:03:51;;;;;;;4.60;1.27;;;;;;;10.61;100.00;98549.34;4987527;28;20545;-76
2023/11/02 09:06:16;;;;;;;5.77;0.90;;;;;;;10.69;100.00;98558.78;4969561;28;20442;-75
2023/11/02 09:08:42;;;;;;;5.37;1.00;;;;;;;10.86;100.00;98546.88;4971599;28;20472;-76
2023/11/02 09:11:08;;;;;;;4.50;1.23;;;;;;;10.56;100.00;98501.06;4965510;28;20184;-76
2023/11/02 09:13:33;;;;;;;3.50;0.93;;;;;;;11.02;100.00;98549.66;4973120;28;20171;-75
2023/11/02 09:15:59;;;;;;;3.40;0.90;;;;;;;10.48;100.00;98447.91;4974364;28;20546;-75
2023/11/02 09:18:25;;;;;;;9.47;1.03;;;;;;;11.26;100.00;98548.22;4972513;28;20198;-75
2023/11/02 09:27:35;;;;;;;5.27;0.77;;;;;;;11.11;100.00;98515.09;4972454;28;20488;-76
2023/11/02 09:30:00;;;;;;;4.50;1.00;;;;;;;11.01;100.00;98483.66;4973553;28;20468;-76
2023/11/02 09:32:26;;;;;;;3.73;1.20;;;;;;;10.83;100.00;98428.59;4972463;28;20177;-76
2023/11/02 09:34:51;;;;;;;4.63;0.90;;;;;;;11.07;100.00;98427.09;4973185;28;20278;-77
2023/11/02 09:37:16;;;;;;;3.00;0.90;;;;;;;10.81;100.00;98336.84;4972160;28;20531;-76
2023/11/02 09:39:42;;;;;;;3.40;1.00;;;;;;;11.28;100.00;98368.16;4961583;28;20305;-76
2023/11/02 09:42:07;;;;;;;6.93;1.00;;;;;;;11.32;100.00;98363.88;4973673;28;20182;-76
2023/11/02 09:44:33;;;;;;;4.43;1.00;;;;;;;11.46;100.00;98362.31;4967769;28;20261;-77
2023/11/02 09:46:59;;;;;;;2.97;0.90;;;;;;;11.27;100.00;98296.78;4970574;28;20269;-77
2023/11/02 09:49:25;;;;;;;3.50;1.27;;;;;;;11.01;100.00;98223.50;4988466;28;20560;-77
2023/11/02 09:51:51;;;;;;;4.07;1.10;;;;;;;11.51;100.00;98273.75;4973160;28;20185;-76
2023/11/02 09:54:16;;;;;;;3.90;0.90;;;;;;;11.87;100.00;98264.91;4974491;28;20426;-77
2023/11/02 09:56:42;;;;;;;4.17;0.80;;;;;;;11.27;100.00;98192.94;4975161;28;20178;-77
2023/11/02 09:59:09;;;;;;;4.57;1.10;;;;;;;11.35;100.00;98175.50;4972314;28;20675;-77
2023/11/02 10:01:35;;;;;;;3.40;0.90;;;;;;;12.26;100.00;98273.16;4972616;28;20431;-77
2023/11/02 10:04:01;;;;;;;4.70;1.10;;;;;;;11.63;100.00;98190.25;4974000;28;20422;-78
2023/11/02 10:06:26;;;;;;;3.90;0.80;;;;;;;11.91;100.00;98198.81;4970747;28;20433;-77
2023/11/02 10:08:52;;;;;;;2.50;0.70;;;;;;;12.11;100.00;98211.41;4971074;28;20687;-77
2023/11/02 10:11:19;;;;;;;3.27;0.80;;;;;;;11.87;100.00;98131.41;4968733;28;20285;-77
2023/11/02 10:13:51;;;;;;;3.90;0.90;;;;;;;11.96;100.00;98107.47;4972733;28;20266;-78
2023/11/02 10:16:24;;;;;;;3.00;0.90;;;;;;;12.37;100.00;98190.63;4969274;28;20440;-77
2023/11/02 10:18:50;;;;;;;5.20;1.10;;;;;;;11.99;100.00;98155.28;4976684;28;20439;-77
2023/11/02 10:21:16;;;;;;;8.10;1.10;;;;;;;12.09;100.00;98136.47;4968751;28;20541;-78
2023/11/02 10:23:48;;;;;;;3.50;0.70;;;;;;;12.39;100.00;98151.66;4975316;28;20584;-77
2023/11/02 10:26:14;;;;;;;3.30;1.30;;;;;;;11.96;100.00;98061.81;4959160;28;20900;-78
2023/11/02 10:28:41;;;;;;;6.33;1.60;;;;;;;12.41;100.00;98124.47;4968366;28;20482;-78
2023/11/02 10:31:07;;;;;;;2.40;0.70;;;;;;;12.06;100.00;98044.84;4975079;28;20425;-78
2023/11/02 10:33:34;;;;;;;3.10;0.80;;;;;;;12.46;100.00;98083.31;4971568;28;20440;-77
2023/11/02 10:36:00;;;;;;;3.23;0.90;;;;;;;12.48;100.00;98081.97;4965662;28;20183;-77
2023/11/02 10:38:25;;;;;;;3.77;0.93;;;;;;;12.33;100.00;98055.19;4973050;28;20838;-79
2023/11/02 10:40:51;;;;;;;3.20;1.00;;;;;;;12.04;100.00;98007.53;4972415;28;20183;-77
2023/11/02 10:43:18;;;;;;;3.00;0.80;;;;;;;12.16;100.00;97999.13;4972982;28;20186;-78
2023/11/02 10:45:49;;;;;;;2.90;0.70;;;;;;;12.55;100.00;98044.00;4972697;28;20675;-78
2023/11/02 10:48:19;;;;;;;2.60;0.60;;;;;;;12.46;100.00;98026.88;4971489;28;20477;-78
2023/11/02 10:50:49;;;;;;;2.63;0.60;;;;;;;12.52;100.00;98026.56;4970596;28;21053;-77
2023/11/02 10:53:30;;;;;;;3.97;0.90;;;;;;;12.55;100.00;98031.38;4974393;28;20430;-77
2023/11/02 10:56:00;;;;;;;5.40;1.20;;;;;;;12.00;100.00;97950.03;4972136;28;20424;-77
2023/11/02 10:58:26;;;;;;;8.03;1.00;;;;;;;11.88;100.00;97920.84;4972775;28;20454;-77
2023/11/02 11:00:53;;;;;;;3.87;0.70;;;;;;;12.50;100.00;98009.09;4969306;28;20536;-78
2023/11/02 11:03:43;;;;;;;4.20;1.00;;;;;;;12.65;100.00;98011.69;4968895;28;20513;-76
2023/11/02 11:06:09;;;;;;;3.00;1.10;;;;;;;12.19;100.00;97907.19;4967732;28;20512;-77
2023/11/02 11:08:35;;;;;;;3.10;0.80;;;;;;;12.18;100.00;97878.75;4972460;28;20827;-76
2023/11/02 11:11:01;;;;;;;3.77;0.80;;;;;;;12.54;100.00;97916.06;4969528;28;20441;-78
2023/11/02 11:13:29;;;;;;;5.03;1.17;;;;;;;12.41;100.00;97886.06;4970564;28;20229;-78
2023/11/02 11:15:57;;;;;;;3.80;0.87;;;;;;;12.89;100.00;97947.19;4976704;28;20437;-77
2023/11/02 11:18:23;;;;;;;4.60;1.30;;;;;;;12.42;100.00;97866.16;4977697;28;20503;-76
2023/11/02 11:20:49;;;;;;;5.33;0.80;;;;;;;12.48;100.00;97871.50;4969280;28;20956;-77
2023/11/02 11:23:16;;;;;;;2.70;0.77;;;;;;;12.77;100.00;97911.81;4971918;28;20457;-77
2023/11/02 11:26:00;;;;;;;2.80;0.67;;;;;;;12.77;100.00;97917.97;4985628;28;20317;-77
2023/11/02 11:28:34;;;;;;;3.93;1.00;;;;;;;12.77;100.00;97911.81;4966761;28;20549;-76
2023/11/02 11:31:00;;;;;;;2.90;0.70;;;;;;;12.99;100.00;97897.84;4967874;28;20485;-76
2023/11/02 11:33:46;;;;;;;14.23;1.17;;;;;;;13.04;100.00;97895.09;4971814;28;20508;-77
2023/11/02 11:36:25;;;;;;;2.40;0.67;;;;;;;12.39;100.00;97804.91;4969181;28;20434;-77
2023/11/02 11:38:52;;;;;;;4.73;1.00;;;;;;;13.06;100.00;97890.25;4968260;28;20675;-78
2023/11/02 11:41:43;;;;;;;3.17;0.83;;;;;;;13.07;100.00;97892.63;4969574;28;20429;-78
2023/11/02 11:44:22;;;;;;;7.43;1.20;;;;;;;12.27;100.00;97772.25;4971561;28;20498;-78
2023/11/02 11:46:50;;;;;;;4.13;0.90;;;;;;;13.07;100.00;97879.16;4971468;28;20484;-78
2023/11/02 11:49:39;;;;;;;4.20;1.00;;;;;;;13.08;100.00;97867.34;4972171;28;20540;-77
2023/11/02 11:52:27;;;;;;;4.20;0.70;;;;;;;12.42;100.00;97737.13;4972410;28;20433;-76
2023/11/02 11:54:54;;;;;;;3.73;0.80;;;;;;;12.03;100.00;97696.97;4967558;28;20442;-77
2023/11/02 11:57:57;;;;;;;3.90;0.83;;;;;;;12.28;100.00;97720.09;4966346;28;20573;-77